Corydon, Iowa
Current Conditions -  °F | °C
As of 6:55 PM on Wednesday 17 Dec 2014 (Local Time) from KCNC Reporting Station
Broken Clouds Broken Clouds  
Wind Chill: 18°   Ceiling: 28000
Heat Index: 25°   Visibility: 10mi
Dew Point: 16°   Wind: 6mph
Humidity: 69%   Direction: 40°NE
Pressure: 30.27"   Gusts: NA
Location:  40.76°N, 93.32°W
Report Text: KCNC 180055Z AUTO 04005KT 10SM SCT260 BKN280 M04/M09 A3027 RMK AO2
Loading
Personal Weather Stations






























Interactive Weather Map New forecast layout! Learn more

10-Day Weather Forecast

Advertisements
Track Severe Weather on mobile